Date,TemperatureHighF,TemperatureAvgF,TemperatureLowF,DewpointHighF,DewpointAvgF,DewpointLowF,HumidityHigh,HumidityAvg,HumidityLow,PressureMaxIn,PressureMinIn,WindSpeedMaxMPH,WindSpeedAvgMPH,GustSpeedMaxMPH,PrecipitationSumIn
2012-1-1,43,38,32,33,31,29,92,77,60,30.52,30.36,11,1,11,0.04
2012-1-2,41,36,32,35,31,29,93,81,65,30.36,30.15,7,1,7,0.06
2012-1-3,47,40,36,42,38,34,94,91,81,30.44,30.30,3,0,3,0.06
2012-1-4,53,42,37,48,40,36,95,92,77,30.33,30.15,23,1,23,0.12
2012-1-5,51,44,32,43,38,29,90,77,68,30.40,30.20,31,4,32,0.06
2012-1-6,43,36,30,35,31,28,93,85,65,30.40,30.27,15,1,15,0.00
2012-1-7,44,39,35,39,35,32,92,87,76,30.50,30.35,8,0,8,0.00
2012-1-8,45,36,31,37,33,29,94,89,69,30.46,30.34,4,0,4,0.00
2012-1-9,46,38,29,40,33,28,94,84,71,30.40,30.18,10,1,17,0.00
2012-1-10,44,40,30,39,31,25,88,72,58,30.60,30.24,13,4,21,0.00
2012-1-11,37,32,27,24,16,13,70,53,40,30.68,30.54,11,2,16,0.00
2012-1-12,38,30,23,21,18,15,79,63,44,30.62,30.44,10,1,13,0.00
2012-1-13,38,28,21,24,21,17,87,75,52,30.44,30.18,9,0,9,0.00
2012-1-14,49,34,21,40,29,18,90,82,60,30.18,29.88,28,3,28,0.23
2012-1-15,35,33,31,32,29,26,92,85,75,30.09,29.98,10,1,16,0.11
2012-1-16,37,33,30,31,28,24,93,82,70,30.21,30.07,14,2,16,0.02
2012-1-17,37,34,32,34,32,30,94,92,87,30.07,29.87,19,1,19,0.96
2012-1-18,34,33,32,32,31,30,95,94,92,29.96,29.72,14,1,14,1.05
2012-1-19,32,31,30,31,29,28,94,93,90,29.87,29.58,10,0,13,1.67
2012-1-20,30,28,27,28,25,24,93,89,88,29.88,29.36,0,0,0,0.26
2012-1-21,42,36,28,37,32,26,92,85,74,29.97,29.33,19,3,19,0.60
2012-1-22,39,35,33,34,32,31,94,91,80,29.97,29.66,8,0,16,0.23
2012-1-23,37,33,30,33,31,29,95,94,85,30.17,29.88,5,0,6,0.02
2012-1-24,35,32,30,34,31,29,95,95,95,30.17,29.92,8,0,8,0.89
2012-1-25,49,45,35,46,40,34,96,82,69,30.35,30.05,18,3,28,0.14
2012-1-26,44,41,36,41,32,29,95,69,59,30.60,30.09,34,5,34,0.18
2012-1-27,43,32,24,30,26,22,90,79,55,30.67,30.52,3,0,12,0.01
2012-1-28,43,32,25,29,26,22,88,79,53,30.53,30.28,3,0,3,0.02
2012-1-29,48,38,29,44,35,25,95,87,74,30.28,29.85,8,1,18,0.48
2012-1-30,51,45,36,41,39,33,90,80,64,30.12,29.91,24,4,24,0.18
2012-1-31,52,43,35,40,37,33,94,80,62,30.14,29.98,12,0,12,0.02
2012-2-1,49,43,38,42,37,34,95,81,62,30.45,29.95,32,3,32,0.11
2012-2-2,52,40,30,36,32,28,94,74,50,30.50,30.38,14,1,14,0.01
2012-2-3,46,37,31,32,30,27,87,75,58,30.43,30.31,21,2,21,0.00
2012-2-4,43,35,30,32,30,27,91,81,64,30.40,30.30,18,2,18,0.00
2012-2-5,41,32,27,33,29,0,94,87,71,30.43,30.30,7,0,7,0.00
2012-2-6,42,33,27,31,28,26,94,84,61,30.31,30.16,17,3,18,0.01
2012-2-7,39,35,32,30,29,28,87,78,67,30.18,30.11,16,4,19,0.00
2012-2-8,39,37,35,37,34,31,93,90,80,30.39,30.18,3,0,4,0.09
2012-2-9,41,39,36,39,37,34,95,94,89,30.45,30.25,7,0,7,0.28
2012-2-10,42,40,39,41,39,37,95,94,92,30.25,30.10,7,0,7,0.26
2012-2-11,51,44,36,40,37,32,95,78,51,30.20,30.13,16,2,16,0.01
2012-2-12,53,42,30,37,32,26,89,70,49,30.13,29.87,10,2,14,0.00
2012-2-13,50,42,38,37,36,33,90,77,59,30.07,29.91,22,4,22,0.00
2012-2-14,43,39,36,37,35,32,91,83,74,30.18,29.95,21,3,21,0.19
2012-2-15,45,38,29,33,31,0,90,76,58,30.39,30.18,14,3,21,0.00
2012-2-16,48,38,30,40,34,27,94,85,67,30.38,30.24,19,1,19,0.00
2012-2-17,45,41,38,41,38,36,94,87,72,30.29,29.98,24,1,24,0.45
2012-2-18,47,42,39,38,35,32,85,75,55,30.14,30.07,21,4,24,0.11
2012-2-19,44,39,35,35,33,31,88,79,65,30.14,29.98,24,3,24,0.08
2012-2-20,48,39,34,45,36,30,95,90,86,30.07,29.91,13,0,20,0.18
2012-2-21,56,52,48,48,46,44,88,78,69,30.14,30.04,25,6,26,0.08
2012-2-22,52,48,42,46,39,33,87,73,49,30.33,30.02,29,8,35,0.53
2012-2-23,48,43,37,35,32,31,79,66,54,30.44,30.32,20,2,20,0.00
2012-2-24,56,44,36,44,35,30,87,71,42,30.33,29.66,21,1,21,0.17
2012-2-25,43,38,35,38,33,29,88,80,68,30.25,29.69,33,7,33,0.62
2012-2-26,46,38,30,37,32,27,88,79,65,30.24,30.08,21,3,25,0.03
2012-2-27,45,35,28,29,26,20,88,69,40,30.23,30.06,13,1,13,0.00
2012-2-28,36,31,27,31,26,22,93,81,59,30.06,29.61,8,0,8,0.13
2012-2-29,42,36,32,37,33,30,94,87,78,29.85,29.62,13,1,13,0.08
2012-3-1,44,38,33,34,32,31,92,80,60,30.37,29.84,24,4,24,0.06
2012-3-2,47,41,38,40,36,33,93,83,70,30.47,30.36,13,4,22,0.11
2012-3-3,54,47,42,46,42,39,92,85,72,30.43,30.34,19,4,19,0.08
2012-3-4,59,46,34,44,39,31,92,77,54,30.34,30.01,19,2,20,0.00
2012-3-5,49,42,38,43,36,26,92,77,63,30.01,29.75,24,4,25,0.18
2012-3-6,45,38,31,30,26,22,89,63,42,30.32,29.93,24,3,24,0.04
2012-3-7,53,41,32,32,27,23,84,60,36,30.45,30.31,16,2,16,0.00
2012-3-8,64,43,28,36,30,24,91,66,27,30.45,30.27,6,0,6,0.00
2012-3-9,62,46,30,39,33,27,92,64,33,30.32,29.99,23,3,24,0.00
2012-3-10,55,48,42,45,41,34,91,77,56,30.01,29.70,25,4,25,0.01
2012-3-11,46,41,34,41,35,0,90,80,63,29.85,29.63,33,3,33,0.13
2012-3-12,42,37,31,40,34,0,93,90,84,29.83,29.34,18,1,18,0.13
2012-3-13,45,37,32,37,32,26,92,84,48,29.94,29.34,26,4,26,0.15
2012-3-14,37,35,32,35,32,0,93,92,89,29.93,29.86,4,0,4,0.30
2012-3-15,50,43,36,48,41,34,95,93,84,29.86,29.68,10,1,16,0.49
2012-3-16,56,47,39,42,37,31,93,70,39,29.77,29.37,8,1,12,0.12
2012-3-17,50,43,38,38,35,32,92,75,52,29.65,29.36,19,3,19,0.01
2012-3-18,48,39,33,35,31,28,92,76,50,29.88,29.61,22,3,22,0.02
2012-3-19,45,38,30,36,31,24,89,78,51,29.97,29.80,7,1,13,0.03
2012-3-20,45,40,35,42,36,33,95,87,77,30.02,29.70,27,3,27,1.15
2012-3-21,38,36,35,36,34,33,94,92,88,30.05,29.83,17,1,17,0.57
2012-3-22,51,42,35,39,35,31,94,79,50,30.08,29.83,19,2,19,0.05
2012-3-23,56,43,33,38,34,31,95,74,40,30.07,29.97,11,1,12,0.01
2012-3-24,59,48,38,39,37,34,89,67,42,30.07,29.92,13,2,13,0.00
2012-3-25,59,46,37,40,37,33,89,71,38,29.93,29.68,22,2,26,0.00
2012-3-26,59,49,42,36,33,28,75,57,32,29.84,29.76,21,4,21,0.00
2012-3-27,53,47,42,45,41,34,90,80,62,29.80,29.58,11,1,11,0.15
2012-3-28,54,46,40,45,40,37,92,81,56,29.89,29.64,17,2,18,0.05
2012-3-29,48,45,41,46,42,39,95,92,86,29.83,29.49,5,0,9,0.80
2012-3-30,50,45,40,49,41,35,95,87,77,29.81,29.47,23,2,24,1.43
2012-3-31,53,44,40,42,39,36,93,85,61,29.70,29.46,7,0,8,0.21
2012-4-1,48,43,39,42,37,32,93,80,57,30.26,29.55,37,3,37,0.21
2012-4-2,60,46,38,39,36,0,93,72,37,30.31,30.03,10,1,10,0.01
2012-4-3,50,43,36,43,36,32,89,76,62,30.03,29.88,23,3,29,0.00
2012-4-4,49,43,39,38,36,33,89,77,63,30.11,29.94,20,4,23,0.11
2012-4-5,51,42,39,37,34,31,81,71,48,30.16,30.09,23,5,23,0.07
2012-4-6,54,44,35,34,32,26,81,63,35,30.30,30.16,12,3,18,0.00
2012-4-7,60,45,28,35,29,25,89,59,27,30.31,30.16,12,1,15,0.00
2012-4-8,63,51,38,40,33,27,80,53,27,30.20,30.01,12,1,14,0.00
2012-4-9,68,55,40,42,37,0,81,54,27,30.02,29.82,11,1,11,0.00
2012-4-10,68,55,44,44,41,38,82,60,37,29.82,29.71,22,3,22,0.00
2012-4-11,54,52,47,46,43,40,83,73,63,29.76,29.63,22,4,24,0.00
2012-4-12,60,47,38,44,38,33,92,73,39,29.80,29.73,17,1,17,0.01
2012-4-13,65,48,32,42,35,28,91,65,32,29.85,29.73,18,2,18,0.00
2012-4-14,60,53,46,42,39,35,80,60,41,30.12,29.85,26,6,26,0.00
2012-4-15,66,57,48,41,33,0,67,42,20,30.19,30.03,19,4,19,0.00
2012-4-16,60,51,47,50,45,39,94,80,50,30.20,29.98,23,2,23,0.36
2012-4-17,53,45,37,45,39,34,92,80,52,30.21,30.03,7,0,11,0.07
2012-4-18,56,48,42,47,43,39,95,83,62,30.09,30.03,16,2,17,0.14
2012-4-19,54,47,39,48,43,36,94,86,64,30.15,30.08,4,0,5,0.27
2012-4-20,61,56,50,52,50,48,95,82,68,30.18,30.07,28,5,28,0.09
2012-4-21,79,60,42,52,47,40,95,67,32,30.16,29.93,10,0,10,0.00
2012-4-22,86,67,47,55,49,44,89,58,27,30.00,29.76,9,0,9,0.00
2012-4-23,84,69,51,57,52,47,89,58,35,29.87,29.65,18,2,18,0.00
2012-4-24,68,62,57,54,49,46,80,65,50,29.93,29.75,24,6,30,0.00
2012-4-25,63,58,54,58,52,49,93,81,66,29.88,29.62,15,1,15,0.21
2012-4-26,56,50,42,50,42,33,88,74,43,30.08,29.59,26,5,26,0.26
2012-4-27,58,50,43,44,40,36,85,70,48,30.30,30.08,18,3,18,0.04
2012-4-28,63,55,47,46,44,41,88,68,50,30.28,30.14,22,4,23,0.04
2012-4-29,68,58,45,49,45,42,90,65,42,30.15,29.79,23,4,23,0.00
2012-4-30,61,53,47,51,44,37,85,73,54,29.97,29.71,26,7,26,0.16
2012-5-1,56,47,41,43,38,35,88,73,47,30.04,29.94,22,5,24,0.32
2012-5-2,58,49,40,43,39,35,89,70,46,30.04,29.77,13,2,13,0.08
2012-5-3,55,48,44,47,43,40,92,82,62,29.99,29.68,24,2,24,0.70
2012-5-4,56,48,44,44,39,35,84,72,51,30.40,29.99,18,5,20,0.06
2012-5-5,58,49,43,40,37,34,75,64,47,30.50,30.39,17,5,18,0.06
2012-5-6,70,53,35,41,35,24,90,57,20,30.49,30.32,14,1,14,0.00
2012-5-7,77,59,39,45,38,32,88,53,22,30.38,30.11,14,1,14,0.00
2012-5-8,74,60,43,49,43,36,84,55,27,30.14,29.97,22,4,22,0.00
2012-5-9,60,53,44,46,32,27,72,47,31,30.31,30.06,19,7,24,0.00
2012-5-10,64,52,40,33,30,27,67,45,27,30.40,30.20,18,5,19,0.00
2012-5-11,70,54,35,36,30,20,82,46,16,30.33,30.15,15,1,16,0.00
2012-5-12,79,59,36,39,32,25,80,43,15,30.30,30.11,14,1,14,0.00
2012-5-13,86,65,42,50,40,0,80,46,19,30.20,29.96,10,1,12,0.00
2012-5-14,94,71,48,55,45,34,81,46,13,30.05,29.84,20,2,21,0.00
2012-5-15,76,68,59,54,50,48,70,54,40,30.00,29.90,27,7,29,0.00
2012-5-16,74,64,55,48,39,30,58,42,21,30.05,29.95,29,8,34,0.00
2012-5-17,65,56,47,40,37,31,68,49,33,30.04,29.94,24,7,24,0.00
2012-5-18,67,55,46,38,34,28,68,47,28,30.15,30.04,26,6,26,0.00
2012-5-19,72,60,42,41,35,29,75,42,24,30.09,29.99,12,2,16,0.00
2012-5-20,66,60,54,54,47,35,84,63,39,30.05,29.92,13,1,13,0.00
2012-5-21,63,58,54,56,52,46,86,80,73,29.95,29.84,20,3,20,0.05
2012-5-22,55,52,50,49,44,41,86,75,65,30.01,29.91,23,5,25,0.14
2012-5-23,62,53,47,50,44,40,88,72,53,30.08,29.98,21,6,22,0.06
2012-5-24,62,53,48,46,43,40,84,72,50,29.99,29.74,24,4,24,0.03
2012-5-25,71,58,49,50,46,40,85,65,34,29.85,29.77,24,4,24,0.00
2012-5-26,65,59,52,52,48,44,82,66,49,29.94,29.84,28,6,28,0.03
2012-5-27,65,58,53,48,46,44,76,64,50,30.06,29.93,21,6,22,0.00
2012-5-28,64,58,53,48,45,41,81,63,49,30.07,30.02,23,6,24,0.00
2012-5-29,68,58,49,43,39,32,77,52,28,30.13,30.07,21,5,21,0.00
2012-5-30,74,60,53,47,45,41,75,59,34,30.20,30.10,14,5,18,0.00
2012-5-31,73,66,62,59,56,49,85,71,58,30.12,29.98,22,6,22,0.00
2012-6-1,78,67,58,60,58,55,92,74,50,29.98,29.79,20,4,20,0.00
2012-6-2,69,61,57,56,51,44,88,70,50,29.92,29.82,22,6,22,0.03
2012-6-3,64,58,52,46,42,40,69,57,42,29.95,29.84,19,4,19,0.00
2012-6-4,59,55,52,55,51,46,93,88,68,29.85,29.68,15,1,15,0.60
2012-6-5,60,54,47,50,43,0,87,67,53,30.20,29.78,22,6,23,0.08
2012-6-6,66,57,50,44,41,36,76,56,35,30.21,30.02,20,4,20,0.00
2012-6-7,60,53,49,53,46,42,91,80,62,30.02,29.90,20,1,20,0.20
2012-6-8,59,51,47,47,43,41,90,77,56,30.03,29.97,21,3,21,0.07
2012-6-9,60,53,47,47,43,39,83,68,53,30.21,30.02,24,6,25,0.00
2012-6-10,70,60,50,47,42,39,69,54,42,30.22,30.12,26,6,26,0.00
2012-6-11,78,65,46,50,45,40,85,53,28,30.16,30.01,19,3,19,0.00
2012-6-12,69,64,58,57,54,48,90,71,48,30.01,29.97,24,6,24,0.03
2012-6-13,66,60,54,54,46,42,79,59,43,30.12,30.00,18,6,22,0.00
2012-6-14,72,59,49,45,42,33,78,55,27,30.08,30.00,28,7,28,0.00
2012-6-15,82,67,53,52,48,45,78,54,30,30.14,30.03,17,4,17,0.00
2012-6-16,85,72,60,62,55,51,77,57,37,30.11,29.89,22,4,22,0.00
2012-6-17,73,67,60,59,53,47,80,62,48,29.93,29.85,25,6,25,0.00
2012-6-18,64,57,54,48,46,43,81,67,50,30.04,29.84,22,6,22,0.02
2012-6-19,67,59,53,48,45,43,72,61,44,30.12,30.04,19,5,19,0.00
2012-6-20,83,64,43,51,44,35,89,54,19,30.15,29.84,13,1,13,0.00
2012-6-21,82,70,57,57,52,48,77,55,35,29.89,29.63,21,4,21,0.00
2012-6-22,69,60,55,54,50,47,87,72,58,29.77,29.64,29,6,29,0.17
2012-6-23,65,57,51,52,48,45,93,75,50,29.90,29.70,20,3,20,0.37
2012-6-24,72,61,50,49,46,38,86,60,31,29.98,29.88,19,4,19,0.00
2012-6-25,69,60,54,50,48,46,81,65,47,29.97,29.88,24,4,25,0.00
2012-6-26,66,58,53,50,47,45,80,68,51,30.07,29.89,22,5,22,0.01
2012-6-27,82,63,44,52,46,41,91,59,27,30.08,29.84,8,0,9,0.00
2012-6-28,77,65,50,54,50,46,89,62,41,30.02,29.88,22,4,23,0.00
2012-6-29,80,69,61,55,53,50,76,58,37,30.04,29.95,21,4,21,0.00
2012-6-30,77,68,62,60,57,54,82,68,52,29.98,29.85,21,4,21,0.00
2012-7-1,72,65,60,57,54,51,85,69,54,30.00,29.90,23,5,23,0.00
2012-7-2,74,64,55,53,51,48,82,62,45,29.97,29.82,24,5,25,0.00
2012-7-3,68,60,55,51,48,44,82,65,43,30.11,29.88,18,6,27,0.00
2012-7-4,77,62,45,48,44,37,88,56,28,30.08,29.86,17,2,17,0.00
2012-7-5,84,68,48,52,46,42,82,49,25,29.99,29.85,22,3,22,0.00
2012-7-6,83,71,55,58,53,47,82,55,39,30.03,29.91,23,5,23,0.00
2012-7-7,86,74,60,62,58,54,81,59,39,30.06,29.87,22,5,22,0.00
2012-7-8,88,77,63,65,61,57,83,59,42,29.98,29.80,28,5,28,0.31
2012-7-9,82,74,65,62,58,56,75,59,45,29.98,29.86,31,7,32,0.00
2012-7-10,81,71,62,58,54,50,70,56,43,30.06,29.90,32,9,32,0.00
2012-7-11,86,76,64,61,57,54,75,55,37,29.98,29.82,26,6,26,0.00
2012-7-12,82,74,67,61,56,49,77,56,37,29.90,29.83,28,6,28,0.00
2012-7-13,81,72,62,57,53,49,72,53,36,29.95,29.82,27,8,27,0.00
2012-7-14,80,71,65,62,59,56,80,65,49,29.92,29.82,23,5,23,0.03
2012-7-15,74,67,61,60,54,49,77,64,48,29.92,29.84,30,7,30,0.00
2012-7-16,80,68,55,58,53,44,85,61,33,29.89,29.68,18,3,18,0.00
2012-7-17,82,73,63,62,59,56,81,63,46,29.86,29.72,24,5,24,0.00
2012-7-18,73,68,64,58,56,55,74,67,58,29.96,29.85,29,8,29,0.00
2012-7-19,83,72,63,63,58,56,88,64,46,29.98,29.82,25,5,25,0.49
2012-7-20,73,68,64,62,57,53,84,68,56,30.18,29.90,28,5,28,0.00
2012-7-21,82,69,53,56,52,49,91,58,36,30.18,29.97,21,3,21,0.00
2012-7-22,69,64,59,54,52,45,81,65,53,30.12,30.00,25,6,25,0.00
2012-7-23,74,64,55,52,48,44,71,57,41,30.21,30.04,25,6,25,0.00
2012-7-24,81,68,51,59,54,46,84,61,40,30.07,29.84,22,4,22,0.00
2012-7-25,86,74,60,60,57,53,85,57,37,29.96,29.78,19,4,20,0.00
2012-7-26,86,75,65,60,58,51,81,57,31,29.91,29.79,22,6,22,0.00
2012-7-27,72,66,62,60,54,51,79,65,51,30.04,29.85,27,8,28,0.00
2012-7-28,81,70,61,56,53,51,77,57,39,30.09,29.98,23,6,23,0.00
2012-7-29,77,69,61,56,54,48,79,59,42,30.10,29.97,28,7,28,0.00
2012-7-30,76,68,61,55,53,48,77,61,40,30.09,30.01,22,6,22,0.00
2012-7-31,78,68,59,54,51,40,79,57,30,30.08,30.00,28,7,28,0.00
2012-8-1,78,69,60,56,53,47,74,58,35,30.11,30.02,26,7,29,0.00
2012-8-2,78,68,60,57,52,44,79,58,31,30.10,29.96,25,7,25,0.00
2012-8-3,91,74,54,57,50,38,84,49,18,30.09,29.88,14,1,18,0.00
2012-8-4,98,76,53,56,46,36,80,43,12,29.98,29.79,11,0,13,0.00
2012-8-5,92,78,57,58,53,48,75,45,27,29.93,29.81,23,3,24,0.00
2012-8-6,93,82,74,63,60,54,64,48,28,29.99,29.88,25,6,26,0.00
2012-8-7,82,74,67,61,59,52,77,59,39,29.99,29.89,28,8,28,0.00
2012-8-8,77,70,64,59,54,51,75,59,42,30.11,29.94,26,7,26,0.00
2012-8-9,80,69,60,59,56,53,82,63,43,30.12,29.92,25,6,25,0.00
2012-8-10,78,70,62,58,56,54,78,63,49,30.03,29.89,26,8,26,0.00
2012-8-11,94,73,55,59,54,42,88,56,19,30.02,29.82,15,1,16,0.00
2012-8-12,102,77,54,61,50,39,78,46,12,29.95,29.75,19,1,21,0.00
2012-8-13,91,79,62,60,58,54,81,51,31,29.92,29.80,26,5,26,0.00
2012-8-14,90,78,66,63,57,52,69,50,34,29.90,29.73,29,6,29,0.00
2012-8-15,96,78,60,62,55,46,88,51,19,29.91,29.76,15,1,15,0.00
2012-8-16,97,77,58,61,51,40,78,46,16,29.97,29.82,12,1,12,0.00
2012-8-17,104,80,59,62,52,42,77,44,13,29.98,29.78,18,0,18,0.00
2012-8-18,83,73,62,64,60,53,84,65,50,29.93,29.78,21,3,21,0.00
2012-8-19,78,71,64,62,58,54,81,64,46,29.94,29.85,29,7,29,0.02
2012-8-20,85,72,62,58,53,43,78,56,27,29.98,29.83,21,5,22,0.00
2012-8-21,76,69,63,57,54,49,77,60,46,29.98,29.85,28,6,28,0.00
2012-8-22,76,66,58,53,51,48,75,58,41,30.04,29.92,26,6,26,0.00
2012-8-23,72,64,58,52,47,42,77,57,38,30.07,29.96,23,6,23,0.00
2012-8-24,81,64,53,48,42,25,74,49,13,30.16,29.92,19,2,19,0.00
2012-8-25,86,69,50,52,43,32,69,43,15,29.95,29.69,14,1,14,0.00
2012-8-26,77,63,51,54,48,42,76,59,41,29.93,29.72,24,4,25,0.00
2012-8-27,76,68,60,55,53,50,77,60,44,30.02,29.93,20,4,20,0.00
2012-8-28,76,68,60,53,48,41,75,50,30,30.04,29.95,24,5,24,0.00
2012-8-29,75,66,60,51,49,46,71,55,39,30.12,30.00,17,4,17,0.00
2012-8-30,80,65,46,52,47,43,89,56,29,30.02,29.77,21,2,21,0.00
2012-8-31,75,66,56,51,48,39,75,56,28,29.92,29.81,23,5,23,0.00
2012-9-1,75,65,56,50,48,45,77,55,38,30.08,29.92,23,6,23,0.00
2012-9-2,78,66,56,48,46,36,72,51,25,30.13,30.00,21,5,22,0.00
2012-9-3,79,67,50,52,49,43,84,56,30,30.10,29.95,22,4,22,0.00
2012-9-4,90,70,51,53,48,40,81,51,18,30.16,29.96,10,1,15,0.00
2012-9-5,87,70,51,52,48,40,85,51,21,30.05,29.80,18,2,18,0.00
2012-9-6,86,70,54,54,48,42,80,50,22,30.06,29.87,14,1,14,0.00
2012-9-7,89,68,49,51,45,36,85,51,16,30.18,30.01,14,1,14,0.00
2012-9-8,91,69,51,56,48,38,80,52,17,30.09,29.83,25,2,25,0.01
2012-9-9,70,63,57,53,49,44,72,60,46,30.02,29.88,27,6,27,0.00
2012-9-10,67,62,56,53,46,38,81,56,36,30.17,29.98,21,5,21,0.00
2012-9-11,75,58,43,45,39,29,82,54,20,30.28,30.14,16,1,16,0.00
2012-9-12,78,60,39,41,34,26,87,47,15,30.38,30.22,19,1,19,0.00
2012-9-13,84,62,42,47,37,29,79,47,14,30.32,30.07,11,1,11,0.00
2012-9-14,88,67,45,47,41,36,78,45,19,30.13,29.89,15,1,15,0.00
2012-9-15,82,71,58,53,50,45,72,49,31,30.06,29.98,25,5,25,0.00
2012-9-16,87,68,50,53,47,38,82,52,19,30.17,30.00,14,1,14,0.00
2012-9-17,88,65,46,51,42,32,81,51,14,30.15,29.96,10,1,10,0.00
2012-9-18,90,69,47,52,43,38,77,45,17,30.09,29.90,17,1,17,0.00
2012-9-19,75,66,54,56,53,45,83,62,47,30.09,29.96,20,4,21,0.00
2012-9-20,73,61,49,56,52,46,92,74,51,30.09,29.95,22,3,22,0.00
2012-9-21,67,62,59,54,52,48,82,70,58,30.07,29.99,29,8,32,0.00
2012-9-22,69,63,58,49,46,44,66,55,42,30.08,30.00,30,7,30,0.00
2012-9-23,73,63,54,52,48,46,80,60,40,30.09,30.01,21,4,21,0.00
2012-9-24,71,62,49,55,51,0,89,67,49,30.10,29.97,27,4,27,0.00
2012-9-25,72,64,59,54,50,45,81,60,39,30.04,29.96,24,7,24,0.00
2012-9-26,79,59,41,50,42,32,86,57,26,30.10,29.95,19,1,19,0.00
2012-9-27,81,62,45,50,45,40,84,59,26,30.08,29.90,11,1,11,0.00
2012-9-28,81,66,55,52,49,43,79,57,27,29.98,29.87,17,1,17,0.00
2012-9-29,75,67,61,56,52,45,80,60,46,30.18,29.96,22,5,22,0.00
2012-9-30,74,62,52,50,46,42,79,57,33,30.30,30.17,17,4,19,0.00
2012-10-1,83,64,44,55,45,39,84,56,25,30.27,30.00,26,2,26,0.00
2012-10-2,69,62,52,56,47,40,77,59,39,30.20,30.00,27,6,27,0.00
2012-10-3,67,56,44,41,28,21,71,36,24,30.41,30.20,14,2,14,0.00
2012-10-4,68,51,34,36,30,22,87,51,19,30.31,30.23,15,1,16,0.00
2012-10-5,69,50,33,33,28,22,81,49,18,30.35,30.23,16,1,16,0.00
2012-10-6,71,50,31,33,27,20,81,48,15,30.33,30.16,16,1,16,0.00
2012-10-7,76,51,33,39,30,21,80,51,14,30.20,29.95,8,0,8,0.00
2012-10-8,72,54,33,40,32,27,82,49,22,30.01,29.88,21,2,21,0.00
2012-10-9,72,59,46,47,43,38,81,58,38,30.08,29.95,14,2,15,0.00
2012-10-10,71,56,40,50,43,36,90,65,38,30.01,29.84,23,4,23,0.00
2012-10-11,75,55,39,48,42,0,89,65,28,29.97,29.75,11,0,12,0.00
2012-10-12,58,53,45,50,47,39,87,79,68,30.06,29.82,17,5,28,0.05
2012-10-13,62,58,55,56,54,50,92,85,76,30.21,30.06,20,4,20,0.04
2012-10-14,66,58,54,57,54,51,93,87,71,30.17,29.93,20,1,20,0.10
2012-10-15,65,60,58,59,57,56,94,90,77,29.96,29.61,18,1,18,0.71
2012-10-16,62,56,50,60,46,39,94,70,47,30.25,29.59,25,4,25,0.31
2012-10-17,65,52,44,44,41,33,86,68,33,30.32,30.20,13,1,13,0.00
2012-10-18,66,50,36,49,41,34,94,74,38,30.28,29.92,12,0,12,0.02
2012-10-19,61,55,50,53,50,46,93,83,73,29.94,29.71,22,3,22,0.30
2012-10-20,51,46,42,47,41,38,92,83,71,29.97,29.81,17,2,18,0.64
2012-10-21,52,44,40,44,40,38,94,86,62,29.95,29.79,10,0,10,0.02
2012-10-22,47,43,40,42,40,37,93,90,80,29.79,29.59,5,0,5,0.30
2012-10-23,52,44,39,44,40,37,94,87,65,29.91,29.71,7,0,7,0.05
2012-10-24,51,45,42,44,40,38,91,84,67,30.19,29.89,10,0,10,0.15
2012-10-25,57,46,39,44,39,35,93,80,46,30.43,30.19,12,0,12,0.01
2012-10-26,52,45,39,46,40,37,91,85,76,30.40,30.10,11,0,11,0.00
2012-10-27,53,49,47,47,46,42,94,87,74,30.11,29.90,19,2,19,0.57
2012-10-28,61,57,48,57,53,46,95,86,68,29.96,29.85,22,2,22,0.66
2012-10-29,72,63,54,61,57,52,95,83,61,30.03,29.84,18,2,20,0.41
2012-10-30,63,58,55,61,57,53,95,94,92,30.02,29.81,3,0,3,0.18
2012-10-31,61,55,48,58,52,46,96,91,71,29.83,29.70,14,0,14,0.01
2012-11-1,55,50,48,51,48,46,95,93,85,30.06,29.77,7,0,7,0.32
2012-11-2,57,50,47,49,47,45,94,90,71,30.10,30.02,5,0,5,0.12
2012-11-3,52,48,45,49,46,44,95,91,82,30.19,30.03,15,1,15,0.10
2012-11-4,66,54,45,58,51,43,94,90,77,30.33,30.19,6,0,11,0.00
2012-11-5,66,59,52,59,55,50,95,88,75,30.34,30.17,17,2,17,0.01
2012-11-6,63,54,47,54,50,46,95,86,69,30.17,29.97,23,2,23,0.04
2012-11-7,54,48,38,48,40,35,88,72,50,30.16,29.96,12,2,20,0.01
2012-11-8,52,42,34,38,35,32,92,80,55,29.96,29.77,8,0,8,0.00
2012-11-9,48,39,33,38,33,30,93,80,54,29.96,29.83,16,1,16,0.00
2012-11-10,46,39,34,35,31,0,88,74,53,30.26,29.96,10,1,16,0.00
2012-11-11,44,40,37,38,35,32,90,83,68,30.33,30.26,7,0,7,0.12
2012-11-12,45,42,38,43,40,36,94,93,90,30.29,30.22,1,0,1,0.60
2012-11-13,50,46,43,47,43,42,95,92,84,30.29,30.18,1,0,1,0.04
2012-11-14,57,47,41,48,44,38,95,88,64,30.31,30.23,9,0,9,0.05
2012-11-15,46,43,41,42,37,36,85,81,76,30.31,30.05,12,1,12,0.00
2012-11-16,45,43,41,39,38,36,86,82,76,30.06,29.91,7,0,7,0.00
2012-11-17,45,43,41,42,39,37,94,88,78,29.92,29.63,17,1,17,0.46
2012-11-18,47,43,41,43,41,39,94,92,84,29.90,29.72,7,0,7,0.48
2012-11-19,52,47,44,48,45,42,95,93,88,29.79,29.61,17,1,17,1.19
2012-11-20,54,47,43,49,44,41,95,91,71,29.82,29.67,23,1,23,0.64
2012-11-21,50,44,40,41,39,35,94,83,62,30.37,29.67,19,2,21,0.38
2012-11-22,46,40,36,39,36,33,93,87,72,30.47,30.36,4,0,5,0.02
2012-11-23,44,39,33,41,37,31,94,91,82,30.40,30.18,4,0,4,0.45
2012-11-24,52,46,38,46,41,35,95,84,67,30.23,30.17,17,2,17,0.23
2012-11-25,47,39,35,37,35,32,94,85,60,30.33,30.22,6,0,8,0.00
2012-11-26,40,36,31,33,31,29,92,83,73,30.34,30.25,12,1,13,0.01
2012-11-27,38,37,36,31,30,30,79,77,75,30.30,30.16,10,0,10,0.00
2012-11-28,38,37,36,33,32,0,89,83,76,30.17,29.88,13,1,13,0.12
2012-11-29,39,37,36,35,34,32,92,87,79,29.94,29.64,10,0,10,0.08
2012-11-30,45,41,37,42,39,35,94,92,86,29.65,29.53,5,0,5,0.13
2012-12-1,53,46,43,44,42,39,95,86,67,29.78,29.40,11,0,11,0.35
2012-12-2,52,46,42,43,41,35,95,82,54,29.91,29.31,21,2,22,0.48
2012-12-3,49,47,45,47,44,41,94,91,76,30.07,29.81,12,0,12,0.16
2012-12-4,50,46,41,49,44,39,95,93,84,29.91,29.71,22,1,22,0.96
2012-12-5,49,44,36,44,37,33,88,77,58,30.25,29.90,15,2,22,0.10
2012-12-6,46,42,36,40,37,32,93,85,77,30.23,30.10,15,2,15,0.05
2012-12-7,48,45,42,42,38,32,87,77,66,30.16,29.98,25,5,25,0.13
2012-12-8,46,42,41,37,35,32,84,75,64,30.36,30.15,16,2,19,0.03
2012-12-9,49,42,38,44,38,35,92,86,80,30.44,30.29,26,2,26,0.01
2012-12-10,52,49,43,45,42,38,84,76,65,30.39,30.12,26,6,26,0.00
2012-12-11,46,42,35,41,38,32,93,86,75,30.12,29.63,20,2,20,0.07
2012-12-12,44,41,34,40,36,32,93,84,77,30.04,29.66,9,2,14,0.04
2012-12-13,38,34,32,33,32,30,92,90,81,30.11,29.90,5,0,5,0.00
2012-12-14,42,36,32,38,33,29,93,87,75,30.02,29.84,10,1,18,0.04
2012-12-15,34,32,31,31,30,28,93,91,86,30.02,29.69,8,0,9,0.33
2012-12-16,37,34,32,35,32,30,95,94,93,29.83,29.18,7,0,8,0.88
2012-12-17,46,39,34,42,34,31,95,85,70,29.98,29.18,28,4,35,1.09
2012-12-18,38,34,30,34,30,27,93,86,76,30.08,29.96,12,1,12,0.02
2012-12-19,34,32,30,32,30,0,93,92,89,30.08,29.74,3,0,9,0.29
2012-12-20,38,35,33,35,33,31,94,91,84,29.88,29.65,14,1,14,0.29
2012-12-21,38,35,31,36,34,29,94,93,92,29.89,29.74,4,0,4,0.02
2012-12-22,44,38,34,40,36,32,94,92,80,29.84,29.60,6,0,6,0.02
2012-12-23,39,36,33,35,34,32,94,91,84,29.88,29.64,17,2,17,0.20
2012-12-24,44,40,34,36,35,31,91,82,73,30.19,29.86,21,4,21,0.03
2012-12-25,35,33,32,32,31,30,95,93,86,30.14,29.82,13,0,13,1.01
2012-12-26,37,34,32,35,32,31,95,93,90,30.04,29.83,3,0,3,0.07
2012-12-27,43,37,32,37,34,30,95,87,75,30.23,30.04,17,2,17,0.05
2012-12-28,35,32,29,31,28,24,94,87,75,30.30,30.21,13,0,13,0.00
2012-12-29,34,32,30,28,27,25,90,84,71,30.31,30.17,7,0,7,0.00
2012-12-30,37,31,28,30,27,25,89,83,66,30.41,30.30,5,0,5,0.00
2012-12-31,29,27,25,25,23,0,88,84,77,30.58,30.37,8,1,8,0.03
2013-1-1,31,29,28,25,22,21,85,76,69,30.69,30.57,13,1,13,0.00